createdAt,value
2017-08-22T00:00:38.758Z,15.70
2017-08-22T00:03:06.263Z,15.70
2017-08-22T00:05:33.786Z,15.70
2017-08-22T00:08:01.283Z,15.60
2017-08-22T00:10:28.813Z,15.60
2017-08-22T00:12:56.338Z,15.60
2017-08-22T00:15:23.851Z,15.60
2017-08-22T00:17:51.371Z,15.60
2017-08-22T00:20:18.871Z,15.60
2017-08-22T00:22:46.391Z,15.50
2017-08-22T00:25:13.890Z,15.50
2017-08-22T00:27:41.538Z,15.50
2017-08-22T00:30:09.037Z,15.50
2017-08-22T00:32:36.580Z,15.40
2017-08-22T00:35:04.082Z,15.40
2017-08-22T00:37:31.615Z,15.40
2017-08-22T00:39:59.105Z,15.40
2017-08-22T00:42:26.625Z,15.30
2017-08-22T00:44:54.130Z,15.30
2017-08-22T00:47:21.807Z,15.30
2017-08-22T00:49:49.311Z,15.30
2017-08-22T00:52:16.838Z,15.20
2017-08-22T00:54:44.339Z,15.20
2017-08-22T00:57:11.853Z,15.20
2017-08-22T00:59:39.376Z,15.20
2017-08-22T01:02:06.883Z,15.20
2017-08-22T01:04:34.402Z,15.20
2017-08-22T01:07:01.915Z,15.10
2017-08-22T01:09:29.443Z,15.10
2017-08-22T01:11:56.952Z,15.10
2017-08-22T01:14:24.494Z,15.10
2017-08-22T01:16:51.999Z,15.00
2017-08-22T01:19:19.548Z,15.00
2017-08-22T01:21:47.048Z,15.00
2017-08-22T01:24:14.554Z,15.00
2017-08-22T01:26:42.080Z,15.00
2017-08-22T01:29:09.584Z,15.00
2017-08-22T01:31:37.120Z,14.90
2017-08-22T01:34:04.632Z,14.90
2017-08-22T01:36:32.160Z,14.90
2017-08-22T01:38:59.678Z,14.80
2017-08-22T01:41:27.196Z,14.80
2017-08-22T01:43:54.694Z,14.80
2017-08-22T01:46:22.226Z,14.80
2017-08-22T01:48:49.727Z,14.80
2017-08-22T01:51:17.239Z,14.80
2017-08-22T01:53:44.771Z,14.70
2017-08-22T01:56:12.278Z,14.70
2017-08-22T01:58:39.794Z,14.70
2017-08-22T02:01:07.307Z,14.70
2017-08-22T02:03:34.826Z,14.70
2017-08-22T02:06:02.331Z,14.60
2017-08-22T02:08:29.855Z,14.60
2017-08-22T02:10:57.366Z,14.60
2017-08-22T02:13:24.893Z,14.60
2017-08-22T02:15:52.394Z,14.60
2017-08-22T02:18:19.922Z,14.60
2017-08-22T02:20:47.433Z,14.60
2017-08-22T02:23:14.932Z,14.50
2017-08-22T02:25:42.635Z,14.50
2017-08-22T02:28:10.134Z,14.50
2017-08-22T02:30:37.672Z,14.50
2017-08-22T02:33:05.171Z,14.50
2017-08-22T02:35:32.697Z,14.40
2017-08-22T02:38:00.234Z,14.40
2017-08-22T02:40:27.751Z,14.40
2017-08-22T02:42:55.254Z,14.40
2017-08-22T02:45:22.775Z,14.40
2017-08-22T02:47:50.286Z,14.30
2017-08-22T02:50:17.807Z,14.30
2017-08-22T02:52:45.307Z,14.30
2017-08-22T02:55:12.839Z,14.30
2017-08-22T02:57:40.367Z,14.30
2017-08-22T03:00:07.866Z,14.30
2017-08-22T03:02:35.381Z,14.20
2017-08-22T03:05:02.877Z,14.20
2017-08-22T03:07:30.398Z,14.20
2017-08-22T03:09:57.909Z,14.10
2017-08-22T03:12:25.514Z,14.20
2017-08-22T03:14:53.091Z,14.20
2017-08-22T03:17:20.630Z,14.10
2017-08-22T03:19:48.134Z,14.10
2017-08-22T03:22:15.654Z,14.10
2017-08-22T03:24:43.150Z,14.10
2017-08-22T03:27:10.662Z,14.10
2017-08-22T03:29:38.172Z,14.10
2017-08-22T03:32:05.703Z,14.00
2017-08-22T03:34:33.210Z,14.00
2017-08-22T03:37:00.761Z,14.00
2017-08-22T03:39:28.280Z,14.00
2017-08-22T03:41:55.783Z,14.00
2017-08-22T03:44:23.307Z,14.00
2017-08-22T03:46:50.810Z,13.90
2017-08-22T03:49:18.554Z,13.90
2017-08-22T03:51:46.058Z,13.90
2017-08-22T03:54:13.690Z,13.90
2017-08-22T03:56:41.198Z,13.90
2017-08-22T03:59:08.714Z,13.80
2017-08-22T04:01:36.216Z,13.90
2017-08-22T04:04:03.747Z,13.80
2017-08-22T04:06:31.243Z,13.80
2017-08-22T04:08:58.770Z,13.80
2017-08-22T04:11:26.342Z,13.80
2017-08-22T04:13:54.060Z,13.80
2017-08-22T04:16:21.550Z,13.70
2017-08-22T04:18:49.067Z,13.70
2017-08-22T04:21:16.562Z,13.70
2017-08-22T04:23:44.090Z,13.70
2017-08-22T04:26:11.587Z,13.30
2017-08-22T04:28:40.240Z,13.70
2017-08-22T04:31:07.759Z,13.70
2017-08-22T04:33:35.257Z,13.60
2017-08-22T04:36:02.774Z,13.60
2017-08-22T04:38:30.280Z,13.60
2017-08-22T04:40:57.802Z,13.60
2017-08-22T04:43:25.323Z,13.60
2017-08-22T04:45:52.843Z,13.60
2017-08-22T04:48:20.378Z,13.60
2017-08-22T04:50:47.895Z,13.60
2017-08-22T04:53:15.396Z,13.60
2017-08-22T04:55:42.914Z,13.50
2017-08-22T04:58:10.414Z,13.50
2017-08-22T05:00:37.943Z,13.50
2017-08-22T05:03:05.465Z,13.50
2017-08-22T05:05:36.338Z,13.50
2017-08-22T05:08:03.883Z,13.60
2017-08-22T05:10:31.401Z,13.50
2017-08-22T05:12:58.933Z,13.60
2017-08-22T05:15:26.483Z,13.60
2017-08-22T05:17:54.018Z,13.60
2017-08-22T05:20:21.527Z,13.60
2017-08-22T05:22:49.048Z,13.60
2017-08-22T05:25:16.562Z,13.60
2017-08-22T05:27:44.078Z,13.60
2017-08-22T05:30:11.605Z,13.70
2017-08-22T05:32:39.138Z,13.70
2017-08-22T05:35:06.638Z,13.80
2017-08-22T05:37:34.266Z,13.80
2017-08-22T05:40:01.771Z,13.90
2017-08-22T05:42:29.306Z,14.00
2017-08-22T05:44:56.830Z,14.10
2017-08-22T05:47:24.326Z,14.20
2017-08-22T05:49:51.851Z,14.20
2017-08-22T05:52:19.350Z,14.30
2017-08-22T05:54:46.887Z,14.40
2017-08-22T05:57:14.385Z,14.50
2017-08-22T05:59:41.923Z,14.60
2017-08-22T06:02:09.410Z,14.80
2017-08-22T06:04:36.938Z,14.90
2017-08-22T06:07:05.426Z,15.00
2017-08-22T06:09:32.942Z,15.20
2017-08-22T06:12:00.438Z,15.30
2017-08-22T06:14:27.970Z,15.40
2017-08-22T06:16:55.474Z,15.60
2017-08-22T06:19:22.969Z,15.70
2017-08-22T06:21:50.499Z,15.90
2017-08-22T06:24:18.000Z,16.00
2017-08-22T06:26:45.524Z,16.10
2017-08-22T06:29:13.027Z,16.20
2017-08-22T06:31:40.550Z,16.30
2017-08-22T06:34:08.051Z,16.40
2017-08-22T06:36:35.578Z,16.50
2017-08-22T06:39:03.075Z,16.70
2017-08-22T06:41:30.622Z,16.80
2017-08-22T06:43:58.128Z,16.90
2017-08-22T06:46:25.650Z,17.00
2017-08-22T06:48:53.148Z,17.10
2017-08-22T06:51:21.431Z,17.40
2017-08-22T06:53:48.938Z,17.40
2017-08-22T06:56:16.470Z,17.60
2017-08-22T06:58:43.988Z,17.70
2017-08-22T07:01:11.490Z,17.80
2017-08-22T07:03:39.007Z,17.90
2017-08-22T07:06:06.515Z,18.00
2017-08-22T07:08:34.067Z,18.10
2017-08-22T07:11:01.646Z,18.20
2017-08-22T07:13:29.161Z,18.40
2017-08-22T07:15:56.687Z,18.50
2017-08-22T07:18:24.203Z,18.60
2017-08-22T07:20:51.776Z,18.70
2017-08-22T07:23:19.303Z,18.80
2017-08-22T07:25:46.814Z,18.90
2017-08-22T07:28:14.343Z,19.00
2017-08-22T07:30:41.851Z,19.20
2017-08-22T07:33:09.386Z,19.20
2017-08-22T07:35:36.882Z,19.20
2017-08-22T07:38:04.378Z,19.30
2017-08-22T07:40:31.898Z,19.50
2017-08-22T07:43:00.185Z,19.50
2017-08-22T07:45:27.706Z,19.50
2017-08-22T07:47:55.209Z,19.70
2017-08-22T07:50:22.742Z,19.90
2017-08-22T07:52:50.348Z,20.00
2017-08-22T07:55:17.868Z,20.10
2017-08-22T07:57:45.374Z,20.20
2017-08-22T08:00:12.886Z,20.30
2017-08-22T08:02:40.398Z,20.40
2017-08-22T08:05:07.927Z,20.70
2017-08-22T08:07:35.437Z,20.90
2017-08-22T08:10:02.946Z,21.10
2017-08-22T08:12:30.482Z,21.30
2017-08-22T08:14:57.997Z,21.40
2017-08-22T08:17:25.520Z,21.50
2017-08-22T08:19:53.022Z,21.60
2017-08-22T08:22:20.546Z,21.70
2017-08-22T08:24:48.047Z,21.80
2017-08-22T08:27:15.564Z,21.90
2017-08-22T08:29:43.079Z,21.90
2017-08-22T08:32:10.602Z,22.00
2017-08-22T08:34:38.101Z,22.10
2017-08-22T08:37:05.622Z,22.20
2017-08-22T08:39:33.138Z,22.20
2017-08-22T08:42:00.651Z,22.30
2017-08-22T08:44:28.150Z,22.40
2017-08-22T08:46:55.686Z,22.50
2017-08-22T08:49:23.190Z,22.60
2017-08-22T08:51:50.686Z,22.60
2017-08-22T08:54:18.206Z,22.70
2017-08-22T08:56:45.702Z,22.70
2017-08-22T08:59:13.214Z,22.80
2017-08-22T09:01:40.702Z,22.80
2017-08-22T09:04:08.210Z,22.90
2017-08-22T09:06:35.701Z,22.80
2017-08-22T09:09:03.214Z,22.90
2017-08-22T09:11:30.706Z,22.90
2017-08-22T09:13:58.234Z,23.00
2017-08-22T09:16:25.730Z,23.00
2017-08-22T09:18:53.245Z,23.10
2017-08-22T09:21:20.749Z,23.10
2017-08-22T09:23:48.262Z,23.10
2017-08-22T09:26:15.799Z,23.10
2017-08-22T09:28:43.333Z,23.20
2017-08-22T09:31:10.918Z,23.20
2017-08-22T09:33:38.415Z,23.20
2017-08-22T09:36:05.926Z,23.30
2017-08-22T09:38:33.473Z,23.30
2017-08-22T09:41:00.995Z,23.20
2017-08-22T09:43:28.490Z,23.30
2017-08-22T09:45:56.013Z,23.30
2017-08-22T09:48:23.506Z,23.30
2017-08-22T09:50:51.023Z,23.30
2017-08-22T09:53:18.519Z,23.30
2017-08-22T09:55:46.033Z,23.40
2017-08-22T09:58:13.526Z,23.30
2017-08-22T10:00:41.038Z,23.30
2017-08-22T10:03:51.662Z,23.30
2017-08-22T10:06:19.178Z,23.30
2017-08-22T10:08:46.675Z,23.40
2017-08-22T10:11:14.195Z,23.40
2017-08-22T10:13:41.690Z,23.40
2017-08-22T10:16:09.182Z,23.40
2017-08-22T10:18:36.701Z,23.40
2017-08-22T10:21:04.198Z,23.40
2017-08-22T10:23:31.722Z,23.40
2017-08-22T10:25:59.214Z,23.40
2017-08-22T10:28:26.786Z,23.40
2017-08-22T10:30:54.344Z,23.40
2017-08-22T10:33:21.858Z,23.40
2017-08-22T10:35:49.354Z,23.30
2017-08-22T10:38:16.874Z,23.30
2017-08-22T10:40:44.368Z,23.30
2017-08-22T10:43:11.926Z,23.30
2017-08-22T10:45:39.427Z,23.30
2017-08-22T10:48:06.942Z,23.30
2017-08-22T10:50:37.642Z,23.40
2017-08-22T10:53:05.138Z,23.40
2017-08-22T10:55:32.722Z,23.40
2017-08-22T10:58:00.239Z,23.40
2017-08-22T11:00:27.781Z,23.40
2017-08-22T11:02:55.351Z,23.50
2017-08-22T11:05:22.899Z,23.50
2017-08-22T11:07:50.436Z,23.50
2017-08-22T11:10:17.973Z,23.40
2017-08-22T11:12:45.474Z,23.50
2017-08-22T11:15:12.998Z,23.50
2017-08-22T11:17:40.494Z,23.50
2017-08-22T11:20:08.015Z,23.50
2017-08-22T11:22:35.522Z,23.50
2017-08-22T11:25:03.060Z,23.50
2017-08-22T11:27:30.598Z,23.50
2017-08-22T11:32:31.974Z,23.60
2017-08-22T11:34:59.482Z,23.50
2017-08-22T11:37:27.763Z,23.60
2017-08-22T11:39:55.258Z,23.60
2017-08-22T11:42:22.809Z,23.50
2017-08-22T11:44:50.318Z,23.50
2017-08-22T11:47:17.834Z,23.40
2017-08-22T11:49:45.334Z,23.50
2017-08-22T11:52:12.838Z,23.50
2017-08-22T11:54:40.329Z,23.50
2017-08-22T11:57:07.854Z,23.60
2017-08-22T11:59:35.430Z,23.60
2017-08-22T12:02:02.972Z,23.60
2017-08-22T12:04:30.511Z,23.60
2017-08-22T12:06:58.035Z,23.70
2017-08-22T12:09:25.550Z,23.70
2017-08-22T12:11:53.054Z,23.70
2017-08-22T12:14:20.578Z,23.70
2017-08-22T12:16:48.071Z,23.70
2017-08-22T12:19:15.671Z,23.60
2017-08-22T12:21:43.939Z,23.70
2017-08-22T12:24:11.455Z,23.60
2017-08-22T12:26:38.954Z,23.70
2017-08-22T12:29:06.469Z,23.70
2017-08-22T12:31:33.962Z,23.70
2017-08-22T12:34:01.510Z,23.60
2017-08-22T12:36:29.278Z,23.60
2017-08-22T12:38:56.774Z,23.70
2017-08-22T12:41:24.295Z,23.70
2017-08-22T12:43:51.794Z,23.70
2017-08-22T12:46:19.306Z,23.70
2017-08-22T12:48:46.806Z,23.70
2017-08-22T12:51:14.313Z,23.80
2017-08-22T12:53:41.803Z,23.80
2017-08-22T12:56:09.320Z,23.90
2017-08-22T12:58:36.820Z,23.90
2017-08-22T13:01:05.097Z,23.80
2017-08-22T13:03:32.603Z,23.80
2017-08-22T13:06:00.118Z,23.80
2017-08-22T13:08:27.639Z,23.70
2017-08-22T13:10:55.138Z,23.80
2017-08-22T13:13:22.654Z,23.80
2017-08-22T13:15:50.146Z,23.80
2017-08-22T13:18:17.678Z,23.70
2017-08-22T13:20:45.170Z,23.80
2017-08-22T13:23:12.690Z,23.80
2017-08-22T13:25:40.190Z,23.90
2017-08-22T13:28:07.714Z,23.90
2017-08-22T13:30:35.202Z,23.90
2017-08-22T13:33:02.707Z,23.90
2017-08-22T13:35:30.214Z,23.90
2017-08-22T13:37:57.711Z,24.00
2017-08-22T13:40:25.218Z,24.00
2017-08-22T13:42:52.715Z,24.00
2017-08-22T13:45:20.234Z,24.00
2017-08-22T13:47:47.728Z,24.10
2017-08-22T13:50:15.242Z,24.10
2017-08-22T13:52:42.737Z,24.10
2017-08-22T13:55:10.270Z,24.10
2017-08-22T13:57:37.762Z,24.10
2017-08-22T14:00:05.278Z,24.10
2017-08-22T14:02:32.779Z,24.10
2017-08-22T14:05:00.281Z,24.20
2017-08-22T14:07:27.794Z,24.20
2017-08-22T14:09:55.292Z,24.20
2017-08-22T14:12:22.801Z,24.30
2017-08-22T14:14:50.306Z,24.30
2017-08-22T14:17:17.830Z,24.30
2017-08-22T14:19:45.338Z,24.30
2017-08-22T14:22:12.847Z,24.30
2017-08-22T14:24:40.351Z,24.30
2017-08-22T14:27:07.862Z,24.30
2017-08-22T14:29:35.358Z,24.30
2017-08-22T14:32:02.878Z,24.20
2017-08-22T14:34:30.381Z,24.30
2017-08-22T14:36:57.874Z,24.20
2017-08-22T14:39:25.392Z,24.30
2017-08-22T14:41:52.897Z,24.30
2017-08-22T14:44:20.418Z,24.30
2017-08-22T14:46:47.932Z,24.30
2017-08-22T14:49:15.478Z,24.30
2017-08-22T14:51:42.970Z,24.30
2017-08-22T14:54:10.488Z,24.30
2017-08-22T14:56:37.985Z,24.30
2017-08-22T14:59:05.511Z,24.30
2017-08-22T15:01:33.002Z,24.30
2017-08-22T15:04:00.541Z,24.30
2017-08-22T15:06:28.049Z,24.30
2017-08-22T15:08:55.578Z,24.40
2017-08-22T15:11:23.070Z,24.40
2017-08-22T15:13:50.586Z,24.40
2017-08-22T15:16:18.102Z,24.40
2017-08-22T15:18:45.598Z,24.40
2017-08-22T15:21:13.126Z,24.40
2017-08-22T15:23:40.617Z,24.50
2017-08-22T15:26:08.147Z,24.50
2017-08-22T15:28:35.646Z,24.50
2017-08-22T15:31:03.230Z,24.50
2017-08-22T15:33:30.722Z,24.60
2017-08-22T15:35:58.230Z,24.50
2017-08-22T15:38:25.738Z,24.60
2017-08-22T15:40:53.324Z,24.60
2017-08-22T15:43:20.821Z,24.60
2017-08-22T15:45:48.343Z,24.60
2017-08-22T15:48:15.842Z,24.70
2017-08-22T15:50:43.354Z,24.70
2017-08-22T15:53:10.863Z,24.80
2017-08-22T15:55:38.390Z,24.90
2017-08-22T15:58:05.881Z,24.90
2017-08-22T16:00:33.385Z,25.00
2017-08-22T16:03:00.895Z,25.00
2017-08-22T16:05:28.386Z,25.00
2017-08-22T16:07:55.911Z,25.00
2017-08-22T16:10:23.422Z,25.00
2017-08-22T16:12:50.946Z,25.00
2017-08-22T16:15:18.437Z,25.00
2017-08-22T16:17:45.959Z,25.00
2017-08-22T16:20:13.453Z,25.10
2017-08-22T16:22:40.961Z,25.10
2017-08-22T16:25:08.495Z,25.20
2017-08-22T16:27:36.016Z,25.20
2017-08-22T16:30:03.535Z,25.10
2017-08-22T16:32:31.058Z,25.20
2017-08-22T16:34:58.590Z,25.30
2017-08-22T16:37:26.090Z,25.30
2017-08-22T16:39:53.613Z,25.40
2017-08-22T16:42:21.107Z,25.50
2017-08-22T16:44:48.622Z,25.50
2017-08-22T16:47:16.125Z,25.50
2017-08-22T16:49:43.642Z,25.50
2017-08-22T16:52:11.140Z,25.50
2017-08-22T16:54:38.662Z,25.40
2017-08-22T16:57:06.167Z,25.40
2017-08-22T16:59:34.463Z,25.30
2017-08-22T17:02:02.007Z,25.30
2017-08-22T17:04:29.623Z,25.20
2017-08-22T17:06:57.153Z,25.20
2017-08-22T17:09:24.660Z,25.10
2017-08-22T17:11:52.186Z,25.10
2017-08-22T17:14:19.702Z,25.00
2017-08-22T17:16:47.229Z,24.90
2017-08-22T17:19:14.731Z,24.90
2017-08-22T17:21:42.266Z,24.80
2017-08-22T17:24:09.778Z,24.80
2017-08-22T17:26:37.297Z,24.70
2017-08-22T17:29:04.799Z,24.70
2017-08-22T17:31:32.323Z,24.60
2017-08-22T17:33:59.825Z,24.60
2017-08-22T17:36:27.339Z,24.50
2017-08-22T17:38:54.841Z,24.50
2017-08-22T17:41:22.366Z,24.40
2017-08-22T17:43:49.873Z,24.30
2017-08-22T17:46:17.381Z,24.30
2017-08-22T17:48:44.894Z,24.20
2017-08-22T17:51:12.416Z,24.20
2017-08-22T17:53:39.950Z,24.10
2017-08-22T17:56:07.469Z,24.00
2017-08-22T17:58:34.994Z,23.90
2017-08-22T18:01:02.504Z,23.90
2017-08-22T18:03:30.027Z,23.80
2017-08-22T18:05:57.535Z,23.70
2017-08-22T18:08:25.057Z,23.60
2017-08-22T18:10:52.567Z,23.60
2017-08-22T18:13:20.082Z,23.50
2017-08-22T18:15:47.583Z,23.40
2017-08-22T18:18:15.139Z,23.30
2017-08-22T18:20:42.634Z,23.20
2017-08-22T18:23:10.163Z,23.20
2017-08-22T18:25:37.671Z,23.00
2017-08-22T18:28:05.175Z,23.00
2017-08-22T18:30:32.693Z,22.90
2017-08-22T18:33:00.210Z,22.80
2017-08-22T18:35:27.746Z,22.70
2017-08-22T18:37:55.247Z,22.60
2017-08-22T18:40:22.767Z,22.50
2017-08-22T18:42:50.274Z,22.40
2017-08-22T18:45:17.786Z,22.30
2017-08-22T18:47:46.095Z,22.10
2017-08-22T18:50:13.615Z,22.10
2017-08-22T18:52:41.123Z,22.00
2017-08-22T18:55:08.638Z,21.90
2017-08-22T18:57:36.141Z,21.80
2017-08-22T19:00:03.714Z,21.80
2017-08-22T19:02:31.212Z,21.60
2017-08-22T19:04:58.734Z,21.60
2017-08-22T19:07:26.239Z,21.50
2017-08-22T19:09:53.755Z,21.40
2017-08-22T19:12:21.278Z,21.30
2017-08-22T19:14:48.804Z,21.30
2017-08-22T19:17:16.362Z,21.20
2017-08-22T19:19:43.860Z,21.10
2017-08-22T19:22:11.378Z,21.00
2017-08-22T19:24:38.867Z,21.00
2017-08-22T19:27:06.377Z,20.90
2017-08-22T19:29:33.891Z,20.90
2017-08-22T19:32:01.437Z,20.80
2017-08-22T19:34:28.963Z,20.80
2017-08-22T19:36:56.491Z,20.70
2017-08-22T19:39:24.031Z,20.60
2017-08-22T19:41:51.558Z,20.60
2017-08-22T19:44:19.087Z,20.50
2017-08-22T19:46:46.577Z,20.50
2017-08-22T19:49:14.090Z,20.40
2017-08-22T19:51:41.647Z,20.40
2017-08-22T19:54:09.205Z,20.30
2017-08-22T19:56:36.702Z,20.20
2017-08-22T19:59:05.009Z,20.10
2017-08-22T20:01:32.506Z,20.10
2017-08-22T20:04:00.017Z,20.10
2017-08-22T20:06:27.554Z,20.00
2017-08-22T20:08:55.126Z,20.00
2017-08-22T20:11:22.666Z,19.90
2017-08-22T20:13:50.234Z,19.90
2017-08-22T20:16:17.757Z,19.80
2017-08-22T20:18:45.251Z,19.80
2017-08-22T20:21:12.793Z,19.70
2017-08-22T20:23:40.310Z,19.70
2017-08-22T20:26:07.870Z,19.70
2017-08-22T20:28:35.406Z,19.60
2017-08-22T20:31:02.951Z,19.60
2017-08-22T20:33:30.486Z,19.50
2017-08-22T20:35:58.045Z,19.50
2017-08-22T20:38:25.561Z,19.40
2017-08-22T20:40:53.110Z,19.40
2017-08-22T20:43:20.614Z,19.40
2017-08-22T20:45:48.503Z,19.30
2017-08-22T20:48:16.091Z,19.30
2017-08-22T20:50:43.598Z,19.20
2017-08-22T20:53:11.153Z,19.20
2017-08-22T20:55:38.648Z,19.20
2017-08-22T20:58:06.178Z,19.10
2017-08-22T21:00:33.743Z,19.10
2017-08-22T21:03:01.270Z,19.10
2017-08-22T21:05:28.773Z,19.00
2017-08-22T21:07:56.298Z,19.00
2017-08-22T21:10:23.814Z,18.90
2017-08-22T21:12:51.368Z,18.90
2017-08-22T21:15:18.873Z,18.90
2017-08-22T21:17:46.385Z,18.80
2017-08-22T21:20:13.890Z,18.80
2017-08-22T21:22:41.423Z,18.80
2017-08-22T21:25:08.914Z,18.70
2017-08-22T21:27:36.410Z,18.70
2017-08-22T21:30:03.923Z,18.60
2017-08-22T21:32:31.426Z,18.60
2017-08-22T21:34:59.007Z,18.60
2017-08-22T21:37:26.504Z,18.60
2017-08-22T21:39:54.058Z,18.50
2017-08-22T21:42:21.563Z,18.50
2017-08-22T21:44:49.078Z,18.50
2017-08-22T21:47:16.582Z,18.40
2017-08-22T21:49:44.095Z,18.40
2017-08-22T21:52:11.595Z,18.40
2017-08-22T21:54:39.111Z,18.30
2017-08-22T21:57:06.614Z,18.30
2017-08-22T21:59:34.142Z,18.30
2017-08-22T22:02:01.639Z,18.20
2017-08-22T22:04:29.149Z,18.20
2017-08-22T22:06:56.674Z,18.20
2017-08-22T22:09:24.174Z,18.10
2017-08-22T22:11:51.696Z,18.10
2017-08-22T22:14:19.194Z,18.10
2017-08-22T22:16:46.711Z,18.00
2017-08-22T22:19:14.210Z,18.00
2017-08-22T22:21:41.717Z,18.00
2017-08-22T22:24:09.216Z,17.90
2017-08-22T22:26:36.747Z,17.90
2017-08-22T22:29:04.242Z,17.90
2017-08-22T22:31:31.754Z,17.80
2017-08-22T22:33:59.242Z,17.80
2017-08-22T22:36:26.770Z,17.80
2017-08-22T22:38:54.279Z,17.80
2017-08-22T22:41:21.775Z,17.70
2017-08-22T22:43:49.299Z,17.70
2017-08-22T22:46:16.803Z,17.70
2017-08-22T22:48:44.310Z,17.70
2017-08-22T22:51:11.822Z,17.60
2017-08-22T22:53:39.450Z,17.60
2017-08-22T22:56:06.950Z,17.60
2017-08-22T22:58:34.467Z,17.60
2017-08-22T23:01:01.966Z,17.60
2017-08-22T23:03:29.483Z,17.50
2017-08-22T23:05:56.990Z,17.50
2017-08-22T23:08:25.270Z,17.50
2017-08-22T23:10:52.777Z,17.50
2017-08-22T23:13:20.306Z,17.40
2017-08-22T23:15:47.803Z,17.40
2017-08-22T23:18:15.295Z,17.40
2017-08-22T23:20:42.810Z,17.40
2017-08-22T23:23:10.305Z,17.30
2017-08-22T23:25:37.827Z,17.30
2017-08-22T23:28:05.327Z,17.30
2017-08-22T23:30:32.857Z,17.20
2017-08-22T23:33:00.359Z,17.30
2017-08-22T23:35:27.877Z,17.20
2017-08-22T23:37:55.370Z,17.20
2017-08-22T23:40:22.887Z,17.10
2017-08-22T23:42:56.103Z,17.10
2017-08-22T23:45:23.610Z,17.10
2017-08-22T23:47:51.106Z,17.10
2017-08-22T23:50:18.618Z,17.00
2017-08-22T23:52:46.110Z,17.00
2017-08-22T23:55:13.621Z,17.00
2017-08-22T23:57:41.120Z,17.00
